Startpagina
Satellietbeelden 15-daagse weersverwachtingenKlimaatWeer op zee Cyclonen Bliksem VliegveldenFAQ Nieuwsbrief Over ons
Weer : Europa Afrika Noord-Amerika Zuid-Amerika Azië Australië-Oceanië Overige
Talen Contact

Oostende, België

breedte: 51-12N, lengte: 002-52E, hoogte: 4 m


METAR: EBOS 251420Z 24009KT 9999 FEW025 BKN044 13/07 Q1020 NOSIG
TAF: EBOS 251100Z 2512/2618 27011KT 9999 FEW025 SCT040 TEMPO 2602/2609 1200 BR MIFG

Tijdstip: 16:30 (14:30 UTC)

Actueel weer

Dit bericht is 10 minuten geleden gemaakt, om 14:20 UTC
Wind 9 kt uit het westzuidwesten
Temperatuur 13°C
Vochtigheid 67%
Druk 1020 hPa
Zicht 10 km of meer
Weinig wolken op 2500 ft
Gebroken wolken op 4400 ft

Eenheden wijzigen

Verwachting

Dit bericht is 3 uur en het 30 minuten geleden gemaakt, om 11:00 UTC
Verwachting geldig van 25 om 12 UTC tot 26 om 18 UTC
Wind 11 kt uit het westen
Zicht 10 km of meer
Weinig wolken op 2500 ft
Verspreide wolken op 4000 ft
Tijdelijke
van 26 om 02 UTC tot 26 om 09 UTC
Zicht: 1200 m
nevel en het laaghangend mist
Voor de informatie op deze site geldt een disclaimer
Weer : Europa Afrika Noord-Amerika Zuid-Amerika Azië Australië-Oceanië Overige
Satellietbeelden 15-daagse weersverwachtingenKlimaatWeer op zee Cyclonen Bliksem VliegveldenFAQ Talen Contact Nieuwsbrief Over ons